Time;durP1;ratioP1;P1;durP2;ratioP2;P2;SDS_P1;SDS_P2;PMS_P1;PMS_P2;Temp;Humidity;BMP_temperature;BMP_pressure;BME280_temperature;BME280_humidity;BME280_pressure;Samples;Min_cycle;Max_cycle;Signal;HPM_P1;HPM_P2
2022/08/07 00:02:13;;;;;;;5.30;5.00;;;29.20;58.40;;;;;;5085412;28;20444;-68
2022/08/07 00:05:03;;;;;;;4.93;4.63;;;29.20;58.30;;;;;;5089067;28;20491;-68
2022/08/07 00:07:33;;;;;;;5.87;5.47;;;29.20;58.20;;;;;;5088624;28;20453;-68
2022/08/07 00:10:10;;;;;;;5.93;5.60;;;29.20;58.10;;;;;;5089794;28;20455;-68
2022/08/07 00:12:57;;;;;;;5.17;4.77;;;29.20;58.00;;;;;;5090777;28;20934;-67
2022/08/07 00:15:29;;;;;;;4.50;4.20;;;29.20;57.90;;;;;;5090528;28;20508;-68
2022/08/07 00:18:14;;;;;;;4.53;4.33;;;29.20;57.80;;;;;;5088091;28;21004;-68
2022/08/07 00:20:53;;;;;;;4.37;4.07;;;29.20;57.70;;;;;;5090617;28;20450;-68
2022/08/07 00:23:21;;;;;;;4.00;3.80;;;29.20;57.60;;;;;;5088185;28;20923;-68
2022/08/07 00:25:50;;;;;;;4.47;4.17;;;29.10;57.50;;;;;;5090152;28;20559;-67
2022/08/07 00:28:28;;;;;;;4.43;4.23;;;29.10;57.40;;;;;;5092394;28;20541;-67
2022/08/07 00:31:06;;;;;;;4.20;3.90;;;29.10;57.20;;;;;;5085060;28;20516;-68
2022/08/07 00:33:40;;;;;;;4.27;3.90;;;29.10;57.20;;;;;;5092649;28;20582;-68
2022/08/07 00:36:10;;;;;;;4.20;4.00;;;29.10;57.10;;;;;;5084624;28;20451;-68
2022/08/07 00:38:39;;;;;;;3.57;3.37;;;29.10;57.10;;;;;;5094380;28;20451;-68
2022/08/07 00:41:08;;;;;;;3.43;3.23;;;29.10;57.10;;;;;;5086671;28;20489;-69
2022/08/07 00:43:42;;;;;;;3.70;3.50;;;29.10;56.90;;;;;;5095929;28;20965;-68
2022/08/07 00:46:31;;;;;;;3.83;3.63;;;29.10;56.80;;;;;;5092505;28;20446;-68
2022/08/07 00:49:01;;;;;;;3.43;3.23;;;29.10;56.80;;;;;;5094211;28;20456;-68
2022/08/07 00:51:32;;;;;;;3.53;3.33;;;29.10;56.80;;;;;;5074505;28;20486;-68
2022/08/07 00:54:20;;;;;;;3.03;2.83;;;29.10;56.70;;;;;;5093595;28;20469;-68
2022/08/07 00:56:50;;;;;;;3.13;3.03;;;29.10;56.70;;;;;;5095606;28;20489;-68
2022/08/07 00:59:20;;;;;;;3.33;3.13;;;29.10;56.60;;;;;;5076624;28;20502;-68
2022/08/07 01:02:04;;;;;;;3.33;3.03;;;29.10;56.60;;;;;;5057059;28;20449;-68
2022/08/07 01:04:41;;;;;;;3.10;2.90;;;29.10;56.50;;;;;;5091677;28;20467;-68
2022/08/07 01:07:13;;;;;;;3.03;2.90;;;29.10;56.50;;;;;;5094634;28;20945;-68
2022/08/07 01:09:42;;;;;;;3.17;2.97;;;29.00;56.30;;;;;;5092955;28;20453;-68
2022/08/07 01:12:31;;;;;;;3.03;2.87;;;29.00;56.40;;;;;;5095368;28;20540;-68
2022/08/07 01:15:01;;;;;;;2.70;2.60;;;29.00;56.30;;;;;;5094549;28;20889;-68
2022/08/07 01:17:32;;;;;;;2.70;2.60;;;29.00;56.20;;;;;;5076639;28;20461;-68
2022/08/07 01:20:06;;;;;;;2.57;2.47;;;29.00;56.10;;;;;;5066068;28;20466;-68
2022/08/07 01:22:38;;;;;;;3.33;2.40;;;29.00;56.00;;;;;;5076560;28;20496;-68
2022/08/07 01:25:16;;;;;;;2.30;2.20;;;28.90;56.00;;;;;;5075379;28;20478;-68
2022/08/07 01:28:04;;;;;;;2.10;2.00;;;29.00;56.00;;;;;;5094976;28;20435;-68
2022/08/07 01:30:39;;;;;;;2.53;2.40;;;28.90;56.00;;;;;;5080755;28;20565;-68
2022/08/07 01:33:10;;;;;;;2.40;2.30;;;28.90;55.90;;;;;;5072931;28;20540;-68
2022/08/07 01:35:39;;;;;;;2.50;2.40;;;28.90;55.70;;;;;;5076875;28;20562;-68
2022/08/07 01:38:28;;;;;;;2.83;2.67;;;28.90;55.70;;;;;;5073598;28;20475;-68
2022/08/07 01:41:05;;;;;;;2.40;2.30;;;28.90;55.60;;;;;;5075463;28;20463;-68
2022/08/07 01:43:35;;;;;;;2.30;2.20;;;28.90;55.60;;;;;;5083268;28;20962;-68
2022/08/07 01:46:07;;;;;;;2.47;2.37;;;28.90;55.60;;;;;;5064390;28;20996;-68
2022/08/07 01:48:43;;;;;;;2.63;2.53;;;28.90;55.50;;;;;;5081980;28;20455;-68
2022/08/07 01:51:22;;;;;;;2.83;2.63;;;28.80;55.40;;;;;;5079056;28;20480;-68
2022/08/07 01:54:14;;;;;;;2.23;2.13;;;28.90;55.40;;;;;;5069641;28;20468;-68
2022/08/07 01:57:06;;;;;;;2.50;2.03;;;28.90;55.40;;;;;;5087793;28;20542;-68
2022/08/07 01:59:42;;;;;;;2.30;2.20;;;28.80;55.30;;;;;;5064200;28;20459;-68
2022/08/07 02:02:17;;;;;;;1.77;1.77;;;28.90;55.20;;;;;;5074344;28;20651;-68
2022/08/07 02:05:08;;;;;;;2.57;2.47;;;28.80;55.20;;;;;;5076906;28;20561;-68
2022/08/07 02:08:03;;;;;;;2.43;2.33;;;28.80;55.20;;;;;;5092845;28;20457;-68
2022/08/07 02:10:40;;;;;;;2.17;2.07;;;28.80;55.10;;;;;;5075181;28;20455;-68
2022/08/07 02:13:12;;;;;;;2.00;1.90;;;28.80;55.10;;;;;;5077393;28;20597;-68
2022/08/07 02:15:51;;;;;;;2.30;2.20;;;28.80;55.00;;;;;;5071734;28;20469;-68
2022/08/07 02:18:22;;;;;;;2.57;2.40;;;28.80;55.00;;;;;;5064175;28;20496;-68
2022/08/07 02:20:54;;;;;;;2.40;2.20;;;28.70;54.90;;;;;;5090774;28;20446;-68
2022/08/07 02:23:26;;;;;;;2.27;2.17;;;28.70;54.90;;;;;;5061266;28;20452;-68
2022/08/07 02:25:58;;;;;;;2.60;2.40;;;28.70;54.90;;;;;;5095809;28;20456;-68
2022/08/07 02:28:48;;;;;;;3.10;2.90;;;28.70;54.80;;;;;;5057123;28;20822;-68
2022/08/07 02:31:19;;;;;;;4.27;2.13;;;28.70;54.70;;;;;;5070458;28;20555;-68
2022/08/07 02:33:58;;;;;;;2.10;2.00;;;28.70;54.70;;;;;;5074841;28;20476;-68
2022/08/07 02:36:44;;;;;;;2.50;2.40;;;28.70;54.70;;;;;;5090600;28;20464;-68
2022/08/07 02:39:17;;;;;;;2.23;2.13;;;28.70;54.60;;;;;;5087559;28;20827;-68
2022/08/07 02:42:08;;;;;;;2.20;2.10;;;28.70;54.60;;;;;;5093737;28;20805;-68
2022/08/07 02:44:48;;;;;;;2.23;2.13;;;28.70;54.50;;;;;;5090407;28;20863;-68
2022/08/07 02:47:22;;;;;;;2.87;2.70;;;28.60;54.50;;;;;;5085800;28;20537;-68
2022/08/07 02:50:04;;;;;;;2.17;2.00;;;28.60;54.50;;;;;;5080753;28;21061;-68
2022/08/07 02:52:40;;;;;;;1.83;1.73;;;28.60;54.40;;;;;;5090190;28;20508;-68
2022/08/07 02:55:19;;;;;;;2.70;2.23;;;28.60;54.40;;;;;;5089183;28;20488;-68
2022/08/07 02:58:13;;;;;;;2.53;2.43;;;28.60;54.40;;;;;;5085199;28;20509;-68
2022/08/07 03:00:43;;;;;;;2.37;2.20;;;28.60;54.40;;;;;;5072324;28;20475;-68
2022/08/07 03:03:16;;;;;;;2.03;1.93;;;28.60;54.30;;;;;;5082238;28;20459;-68
2022/08/07 03:05:55;;;;;;;2.10;2.00;;;28.60;54.30;;;;;;5076974;28;20978;-68
2022/08/07 03:08:24;;;;;;;2.40;2.30;;;28.60;54.30;;;;;;5090915;28;20442;-68
2022/08/07 03:10:59;;;;;;;2.43;2.33;;;28.60;54.30;;;;;;5089709;28;20870;-68
2022/08/07 03:13:35;;;;;;;2.70;2.50;;;28.60;54.20;;;;;;5089634;28;20514;-68
2022/08/07 03:16:19;;;;;;;2.57;2.33;;;28.60;54.30;;;;;;5077597;28;20843;-68
2022/08/07 03:18:56;;;;;;;3.10;2.90;;;28.60;54.40;;;;;;5092485;28;20447;-68
2022/08/07 03:21:24;;;;;;;2.60;2.40;;;28.60;54.40;;;;;;5085030;28;20509;-68
2022/08/07 03:23:55;;;;;;;3.23;3.03;;;28.60;54.40;;;;;;5088846;28;20513;-68
2022/08/07 03:26:49;;;;;;;3.43;3.20;;;28.50;54.40;;;;;;5090793;28;20538;-68
2022/08/07 03:29:29;;;;;;;3.10;2.90;;;28.60;54.50;;;;;;5072031;28;20456;-68
2022/08/07 03:31:58;;;;;;;3.17;2.97;;;28.50;54.50;;;;;;5090762;28;20455;-68
2022/08/07 03:34:27;;;;;;;3.87;3.30;;;28.50;54.50;;;;;;5090633;28;20858;-68
2022/08/07 03:37:01;;;;;;;2.90;2.80;;;28.50;54.60;;;;;;5090237;28;21002;-68
2022/08/07 03:39:46;;;;;;;3.20;3.00;;;28.50;54.60;;;;;;5071600;28;20464;-68
2022/08/07 03:42:36;;;;;;;3.50;3.20;;;28.50;54.60;;;;;;5072941;28;20456;-68
2022/08/07 03:45:09;;;;;;;3.20;3.00;;;28.50;54.70;;;;;;5073571;28;20813;-68
2022/08/07 03:47:38;;;;;;;2.90;2.80;;;28.50;54.70;;;;;;5072546;28;20521;-68
2022/08/07 03:50:20;;;;;;;3.10;2.90;;;28.50;54.70;;;;;;5089610;28;20516;-68
2022/08/07 03:52:52;;;;;;;3.40;3.20;;;28.50;54.70;;;;;;5072825;28;20789;-68
2022/08/07 03:55:22;;;;;;;2.60;2.50;;;28.50;54.80;;;;;;5074931;28;20803;-68
2022/08/07 03:58:12;;;;;;;3.13;2.93;;;28.50;54.80;;;;;;5089862;28;20633;-68
2022/08/07 04:01:10;;;;;;;2.80;2.70;;;28.50;54.80;;;;;;5083877;28;20485;-68
2022/08/07 04:03:42;;;;;;;3.00;2.80;;;28.50;54.90;;;;;;5087262;28;20469;-68
2022/08/07 04:06:22;;;;;;;3.10;3.00;;;28.50;54.90;;;;;;5091356;28;20985;-68
2022/08/07 04:09:13;;;;;;;3.00;2.90;;;28.50;55.00;;;;;;5092739;28;20461;-68
2022/08/07 04:11:46;;;;;;;2.93;2.73;;;28.50;55.00;;;;;;5088471;28;20494;-68
2022/08/07 04:14:37;;;;;;;3.33;3.13;;;28.50;55.00;;;;;;5092582;28;20958;-68
2022/08/07 04:17:16;;;;;;;3.40;3.20;;;28.50;55.10;;;;;;5078869;28;21014;-68
2022/08/07 04:19:50;;;;;;;4.00;3.70;;;28.50;55.10;;;;;;5076483;28;20587;-68
2022/08/07 04:22:25;;;;;;;2.93;2.73;;;28.50;55.20;;;;;;5090200;28;20475;-68
2022/08/07 04:24:59;;;;;;;3.87;3.57;;;28.50;55.20;;;;;;5078258;28;20555;-68
2022/08/07 04:27:31;;;;;;;3.20;3.00;;;28.50;55.20;;;;;;5092112;28;20953;-68
2022/08/07 04:30:06;;;;;;;3.80;3.50;;;28.50;55.30;;;;;;5084138;28;21030;-68
2022/08/07 04:32:58;;;;;;;3.60;3.30;;;28.40;55.30;;;;;;5077466;28;20804;-68
2022/08/07 04:35:30;;;;;;;3.60;3.40;;;28.50;55.40;;;;;;5093103;28;20457;-68
2022/08/07 04:38:07;;;;;;;3.70;3.50;;;28.50;55.40;;;;;;5076040;28;20460;-68
2022/08/07 04:40:42;;;;;;;3.70;3.50;;;28.50;55.40;;;;;;5090080;28;20463;-68
2022/08/07 04:43:23;;;;;;;3.40;3.20;;;28.50;55.40;;;;;;5086605;28;20534;-68
2022/08/07 04:46:18;;;;;;;3.67;3.47;;;28.50;55.50;;;;;;5071143;28;20467;-68
2022/08/07 04:49:03;;;;;;;3.30;3.10;;;28.50;55.60;;;;;;5092595;28;20463;-68
2022/08/07 04:51:55;;;;;;;3.27;3.07;;;28.40;55.70;;;;;;5092446;28;20475;-68
2022/08/07 04:54:31;;;;;;;4.00;3.80;;;28.40;55.70;;;;;;5074869;28;20930;-68
2022/08/07 04:57:14;;;;;;;3.83;3.33;;;28.50;55.70;;;;;;5055378;28;20628;-68
2022/08/07 05:00:05;;;;;;;3.63;3.43;;;28.40;55.70;;;;;;5055060;28;20567;-68
2022/08/07 05:02:58;;;;;;;4.50;4.30;;;28.40;55.80;;;;;;5089558;28;20469;-68
2022/08/07 05:05:34;;;;;;;3.63;3.33;;;28.40;55.90;;;;;;5091098;28;20563;-68
2022/08/07 05:08:32;;;;;;;3.60;3.47;;;28.40;55.90;;;;;;5075519;28;20961;-68
2022/08/07 05:11:27;;;;;;;3.80;3.60;;;28.40;56.00;;;;;;5091657;28;20453;-68
2022/08/07 05:14:20;;;;;;;3.70;3.50;;;28.40;56.00;;;;;;5091819;28;20501;-68
2022/08/07 05:17:11;;;;;;;3.63;3.43;;;28.40;56.00;;;;;;5084084;28;20571;-68
2022/08/07 05:19:49;;;;;;;3.37;3.17;;;28.40;56.10;;;;;;5076686;28;20463;-68
2022/08/07 05:22:22;;;;;;;3.43;3.23;;;28.40;56.10;;;;;;5080273;28;20461;-68
2022/08/07 05:24:59;;;;;;;4.27;4.07;;;28.40;56.10;;;;;;5077760;28;20465;-68
2022/08/07 05:27:30;;;;;;;3.63;3.43;;;28.40;56.10;;;;;;5078132;28;20513;-68
2022/08/07 05:30:22;;;;;;;3.10;2.90;;;28.40;56.20;;;;;;5086278;28;20468;-68
2022/08/07 05:33:03;;;;;;;3.40;3.20;;;28.40;56.20;;;;;;5093222;28;20845;-68
2022/08/07 05:35:33;;;;;;;3.90;3.70;;;28.40;56.30;;;;;;5093106;28;20456;-68
2022/08/07 05:38:13;;;;;;;3.20;3.00;;;28.40;56.30;;;;;;5081832;28;20472;-68
2022/08/07 05:41:06;;;;;;;3.77;3.57;;;28.40;56.30;;;;;;5076397;28;20479;-68
2022/08/07 05:43:48;;;;;;;3.60;3.30;;;28.40;56.40;;;;;;5073403;28;20457;-68
2022/08/07 05:46:38;;;;;;;3.60;3.40;;;28.30;56.50;;;;;;5075233;28;20467;-68
2022/08/07 05:49:08;;;;;;;4.10;3.90;;;28.30;56.60;;;;;;5075568;28;20517;-68
2022/08/07 05:51:42;;;;;;;3.60;3.40;;;28.40;56.40;;;;;;5077596;28;20471;-68
2022/08/07 05:54:17;;;;;;;3.03;2.93;;;28.30;56.60;;;;;;5069802;28;20483;-68
2022/08/07 05:57:08;;;;;;;3.60;3.40;;;28.30;56.60;;;;;;5060519;28;20504;-68
2022/08/07 05:59:38;;;;;;;3.60;3.40;;;28.30;56.70;;;;;;5073609;28;20959;-68
2022/08/07 06:02:30;;;;;;;3.70;3.50;;;28.30;56.70;;;;;;5079255;28;20566;-68
2022/08/07 06:05:05;;;;;;;3.90;3.60;;;28.40;56.60;;;;;;5077083;28;20815;-68
2022/08/07 06:07:39;;;;;;;3.23;3.03;;;28.40;56.60;;;;;;5096664;28;20467;-68
2022/08/07 06:10:29;;;;;;;3.03;2.87;;;28.30;56.70;;;;;;5082752;28;20978;-68
2022/08/07 06:13:00;;;;;;;2.73;2.60;;;28.40;56.50;;;;;;5083414;28;20464;-68
2022/08/07 06:15:34;;;;;;;3.60;3.40;;;28.40;56.60;;;;;;5082887;28;20491;-68
2022/08/07 06:18:12;;;;;;;2.60;2.50;;;28.30;56.70;;;;;;5083494;28;20483;-68
2022/08/07 06:20:44;;;;;;;3.00;2.90;;;28.30;56.80;;;;;;5078290;28;20468;-68
2022/08/07 06:23:34;;;;;;;3.77;3.50;;;28.30;56.80;;;;;;5081715;28;20478;-68
2022/08/07 06:26:25;;;;;;;2.77;2.57;;;28.40;56.60;;;;;;5074059;28;20459;-68
2022/08/07 06:28:59;;;;;;;3.07;2.90;;;28.40;56.50;;;;;;5081539;28;20557;-68
2022/08/07 06:31:31;;;;;;;3.10;2.80;;;28.40;56.50;;;;;;5075577;28;20477;-68
2022/08/07 06:34:17;;;;;;;2.63;2.53;;;28.40;56.50;;;;;;5074808;28;21180;-68
2022/08/07 06:36:48;;;;;;;3.27;3.07;;;28.40;56.50;;;;;;5075267;28;20812;-68
2022/08/07 06:39:24;;;;;;;2.70;2.60;;;28.40;56.50;;;;;;5091043;28;20446;-68
2022/08/07 06:42:19;;;;;;;2.80;2.60;;;28.40;56.40;;;;;;5086757;28;20458;-68
2022/08/07 06:45:22;;;;;;;2.80;2.70;;;28.40;56.40;;;;;;5083908;28;20466;-68
2022/08/07 06:47:56;;;;;;;2.80;2.60;;;28.30;56.50;;;;;;5073812;28;20938;-68
2022/08/07 06:50:40;;;;;;;2.60;2.50;;;28.30;56.40;;;;;;5072078;28;20467;-68
2022/08/07 06:53:13;;;;;;;2.50;2.40;;;28.30;56.40;;;;;;5073321;28;20601;-68
2022/08/07 06:56:05;;;;;;;2.43;2.27;;;28.30;56.30;;;;;;5083680;28;20450;-68
2022/08/07 06:58:46;;;;;;;2.20;2.10;;;28.30;56.20;;;;;;5079148;28;20505;-68
2022/08/07 07:01:37;;;;;;;2.80;2.60;;;28.30;56.20;;;;;;5072858;28;20551;-68
2022/08/07 07:04:17;;;;;;;2.37;2.27;;;28.30;56.20;;;;;;5080817;28;20571;-68
2022/08/07 07:06:55;;;;;;;3.10;2.90;;;28.30;56.10;;;;;;5077452;28;20491;-68
2022/08/07 07:09:30;;;;;;;2.20;2.10;;;28.30;56.10;;;;;;5081068;28;20495;-68
2022/08/07 07:12:17;;;;;;;2.20;2.10;;;28.20;56.00;;;;;;5090032;28;20468;-68
2022/08/07 07:15:04;;;;;;;2.17;2.07;;;28.30;56.00;;;;;;5089345;28;20456;-68
2022/08/07 07:17:41;;;;;;;2.20;2.10;;;28.30;55.90;;;;;;5089031;28;20501;-68
2022/08/07 07:20:21;;;;;;;2.20;2.10;;;28.30;55.80;;;;;;5089287;28;20455;-68
2022/08/07 07:22:50;;;;;;;1.83;1.73;;;28.30;55.80;;;;;;5092356;28;20480;-68
2022/08/07 07:25:41;;;;;;;2.00;1.90;;;28.30;55.70;;;;;;5089932;28;20475;-68
2022/08/07 07:28:37;;;;;;;2.10;2.00;;;28.30;55.70;;;;;;5091001;28;20547;-68
2022/08/07 07:31:32;;;;;;;2.00;1.90;;;28.30;55.50;;;;;;5091144;28;20815;-68
2022/08/07 07:34:15;;;;;;;2.30;2.20;;;28.30;55.60;;;;;;5091359;28;20846;-68
2022/08/07 07:36:45;;;;;;;2.20;2.10;;;28.30;55.50;;;;;;5091428;28;20867;-68
2022/08/07 07:39:21;;;;;;;1.77;1.67;;;28.30;55.50;;;;;;5090636;28;20564;-68
2022/08/07 07:41:51;;;;;;;1.70;1.60;;;28.30;55.40;;;;;;5089268;28;20498;-68
2022/08/07 07:44:43;;;;;;;1.83;1.73;;;28.20;55.40;;;;;;5088701;28;20534;-68
2022/08/07 07:47:19;;;;;;;3.80;1.90;;;28.30;55.20;;;;;;5088911;28;20448;-68
2022/08/07 07:49:52;;;;;;;2.03;1.93;;;28.30;55.20;;;;;;5090389;28;20445;-68
2022/08/07 07:52:43;;;;;;;1.67;1.57;;;28.30;55.10;;;;;;5089408;28;20562;-68
2022/08/07 07:55:17;;;;;;;1.50;1.40;;;28.30;55.10;;;;;;5090628;28;20444;-68
2022/08/07 07:57:49;;;;;;;1.60;1.50;;;28.20;55.10;;;;;;5091231;28;20522;-69
2022/08/07 08:00:20;;;;;;;1.73;1.63;;;28.20;55.00;;;;;;5090399;28;20470;-68
2022/08/07 08:03:05;;;;;;;1.43;1.40;;;28.20;54.90;;;;;;5089068;28;20518;-68
2022/08/07 08:05:39;;;;;;;1.67;1.57;;;28.20;54.90;;;;;;5088276;28;20496;-68
2022/08/07 08:08:24;;;;;;;2.23;2.03;;;28.20;54.90;;;;;;5089172;28;21640;-68
2022/08/07 08:11:08;;;;;;;1.60;1.50;;;28.20;54.80;;;;;;5087186;28;20833;-70
2022/08/07 08:13:47;;;;;;;1.70;1.60;;;28.20;54.80;;;;;;5089670;28;20458;-70
2022/08/07 08:16:28;;;;;;;3.67;1.50;;;28.20;54.90;;;;;;5089804;28;21156;-70
2022/08/07 08:19:00;;;;;;;1.40;1.40;;;28.20;54.80;;;;;;5087009;28;20478;-70
2022/08/07 08:27:50;;;;;;;1.80;1.70;;;28.30;54.50;;;;;;5088386;28;20891;-68
2022/08/07 08:30:30;;;;;;;1.40;1.37;;;28.20;54.50;;;;;;5088057;28;20462;-68
2022/08/07 08:33:02;;;;;;;2.00;1.87;;;28.30;54.40;;;;;;5090558;28;20502;-68
2022/08/07 08:35:34;;;;;;;1.70;1.60;;;28.30;54.30;;;;;;5089548;28;20567;-68
2022/08/07 08:38:17;;;;;;;2.17;1.97;;;28.20;54.40;;;;;;5089268;28;20978;-68
2022/08/07 08:40:54;;;;;;;1.23;1.23;;;28.20;54.30;;;;;;5087956;28;20448;-68
2022/08/07 08:43:33;;;;;;;1.57;1.47;;;28.20;54.20;;;;;;5083818;28;20517;-68
2022/08/07 08:46:22;;;;;;;1.50;1.50;;;28.20;54.30;;;;;;5082375;28;20509;-68
2022/08/07 08:48:59;;;;;;;1.77;1.67;;;28.20;54.20;;;;;;5082725;28;20462;-68
2022/08/07 08:51:32;;;;;;;2.20;1.93;;;28.20;54.20;;;;;;5085176;28;20478;-68
2022/08/07 08:54:26;;;;;;;1.37;1.37;;;28.20;54.20;;;;;;5094328;28;20526;-68
2022/08/07 08:56:57;;;;;;;1.40;1.40;;;28.20;54.20;;;;;;5095398;28;20448;-68
2022/08/07 08:59:31;;;;;;;2.00;1.90;;;28.20;54.30;;;;;;5094872;28;20476;-68
2022/08/07 09:02:18;;;;;;;1.63;1.53;;;28.20;54.40;;;;;;5089734;28;20535;-67
2022/08/07 09:05:21;;;;;;;1.40;1.30;;;28.20;54.20;;;;;;5088529;28;20503;-68
2022/08/07 09:08:30;;;;;;;1.70;1.60;;;28.20;53.90;;;;;;5093620;28;20926;-71
2022/08/07 09:11:13;;;;;;;1.37;1.27;;;28.20;54.00;;;;;;5091296;28;20527;-72
2022/08/07 09:14:11;;;;;;;1.40;1.33;;;28.20;54.10;;;;;;5089119;28;20550;-72
2022/08/07 09:16:57;;;;;;;1.40;1.30;;;28.20;53.80;;;;;;5091742;28;20503;-72
2022/08/07 09:19:41;;;;;;;1.67;1.50;;;28.20;54.40;;;;;;5092774;28;21050;-68
2022/08/07 09:22:43;;;;;;;1.50;1.50;;;28.20;54.00;;;;;;5094356;28;20460;-67
2022/08/07 09:25:41;;;;;;;1.53;1.37;;;28.20;53.80;;;;;;5090176;28;20460;-68
2022/08/07 09:28:35;;;;;;;2.17;2.00;;;28.20;53.70;;;;;;5092253;28;20456;-68
2022/08/07 09:31:36;;;;;;;1.50;1.40;;;28.20;53.60;;;;;;5093104;28;20538;-68
2022/08/07 09:34:13;;;;;;;1.67;1.40;;;28.20;53.60;;;;;;5091010;28;20874;-68
2022/08/07 09:36:57;;;;;;;1.50;1.40;;;28.20;53.60;;;;;;5093558;28;20441;-68
2022/08/07 09:39:38;;;;;;;1.57;1.33;;;28.20;53.70;;;;;;5089725;28;20474;-68
2022/08/07 09:42:43;;;;;;;1.73;1.63;;;28.20;53.60;;;;;;5088833;28;20470;-68
2022/08/07 09:45:18;;;;;;;2.47;1.77;;;28.20;53.50;;;;;;5090799;28;20451;-68
2022/08/07 09:48:22;;;;;;;1.73;1.53;;;28.20;53.60;;;;;;5089853;28;20558;-68
2022/08/07 09:51:19;;;;;;;1.40;1.30;;;28.20;53.80;;;;;;5089819;28;20525;-68
2022/08/07 09:54:14;;;;;;;2.93;1.90;;;28.20;53.80;;;;;;5091231;28;20826;-67
2022/08/07 09:57:21;;;;;;;1.50;1.40;;;28.20;53.70;;;;;;5092501;28;20446;-68
2022/08/07 10:00:08;;;;;;;2.47;2.27;;;28.10;53.70;;;;;;5085322;28;20519;-68
2022/08/07 10:03:25;;;;;;;2.07;1.97;;;28.10;53.60;;;;;;5091322;28;20477;-68
2022/08/07 10:06:52;;;;;;;1.73;1.63;;;28.20;53.40;;;;;;5033638;28;20524;-68
2022/08/07 10:09:52;;;;;;;8.63;1.70;;;28.20;53.50;;;;;;5089534;28;20470;-68
2022/08/07 10:12:47;;;;;;;1.80;1.70;;;28.20;53.30;;;;;;5090634;28;20546;-68
2022/08/07 10:15:49;;;;;;;1.90;1.80;;;28.30;53.30;;;;;;5090391;28;20981;-68
2022/08/07 10:18:33;;;;;;;1.80;1.70;;;28.30;53.10;;;;;;5091057;28;20806;-68
2022/08/07 10:21:18;;;;;;;1.70;1.60;;;28.30;52.90;;;;;;5092361;28;20440;-68
2022/08/07 10:24:25;;;;;;;1.83;1.73;;;28.30;52.90;;;;;;5091970;28;20500;-68
2022/08/07 10:27:09;;;;;;;2.80;1.93;;;28.20;52.90;;;;;;5093347;28;20447;-68
2022/08/07 10:30:02;;;;;;;4.13;1.90;;;28.20;52.80;;;;;;5090708;28;20451;-69
2022/08/07 10:33:06;;;;;;;2.70;2.50;;;28.20;53.00;;;;;;5082732;28;20451;-69
2022/08/07 10:35:50;;;;;;;2.20;2.10;;;28.20;53.00;;;;;;5073814;28;20461;-71
2022/08/07 10:38:43;;;;;;;2.20;2.10;;;28.30;53.20;;;;;;5072026;28;20430;-71
2022/08/07 10:41:21;;;;;;;2.43;2.30;;;28.40;53.10;;;;;;5084735;28;20455;-72
2022/08/07 10:44:17;;;;;;;5.80;5.27;;;28.50;53.10;;;;;;5080085;28;20458;-71
2022/08/07 10:47:05;;;;;;;10.13;7.10;;;28.60;53.10;;;;;;5092651;28;20434;-71
2022/08/07 10:49:50;;;;;;;12.97;8.13;;;28.60;53.20;;;;;;5093541;28;20478;-71
2022/08/07 10:52:24;;;;;;;12.50;7.00;;;28.60;53.10;;;;;;5090357;28;20488;-71
2022/08/07 10:55:10;;;;;;;8.70;5.60;;;28.60;53.10;;;;;;5085646;28;20452;-71
2022/08/07 10:58:10;;;;;;;7.07;5.80;;;28.60;53.30;;;;;;5086221;28;20467;-70
2022/08/07 11:00:50;;;;;;;8.33;6.43;;;28.60;53.30;;;;;;5091304;28;20481;-70
2022/08/07 11:03:36;;;;;;;4.63;4.13;;;28.60;53.40;;;;;;5086503;28;20731;-71
2022/08/07 11:06:28;;;;;;;5.10;4.43;;;28.60;53.30;;;;;;5090877;28;20537;-71
2022/08/07 11:09:02;;;;;;;5.53;4.10;;;28.60;53.20;;;;;;5089908;28;20479;-71
2022/08/07 11:11:44;;;;;;;4.10;3.70;;;28.60;53.30;;;;;;5092785;28;20443;-71
2022/08/07 11:14:26;;;;;;;4.57;3.40;;;28.60;53.20;;;;;;5092532;28;20511;-71
2022/08/07 11:17:21;;;;;;;4.43;3.47;;;28.60;53.30;;;;;;5083016;28;20954;-71
2022/08/07 11:20:16;;;;;;;2.87;2.67;;;28.50;53.50;;;;;;5089880;28;20974;-71
2022/08/07 11:22:55;;;;;;;5.93;2.97;;;28.50;53.40;;;;;;5090566;28;20872;-71
2022/08/07 11:25:30;;;;;;;2.63;2.43;;;28.60;53.50;;;;;;5088255;28;20459;-70
2022/08/07 11:28:10;;;;;;;3.13;2.83;;;28.60;53.20;;;;;;5085623;28;20509;-69
2022/08/07 11:30:53;;;;;;;2.87;2.30;;;28.60;53.40;;;;;;5083742;28;20467;-70
2022/08/07 11:33:29;;;;;;;2.40;2.20;;;28.60;53.20;;;;;;5086673;28;20467;-72
2022/08/07 11:36:30;;;;;;;2.50;2.40;;;28.50;53.40;;;;;;5088322;28;20459;-68
2022/08/07 11:39:09;;;;;;;2.80;2.20;;;28.60;53.10;;;;;;5087514;28;20541;-66
2022/08/07 11:41:52;;;;;;;2.00;1.90;;;28.60;53.20;;;;;;5090565;28;21235;-66
2022/08/07 11:44:42;;;;;;;2.30;2.20;;;28.70;52.60;;;;;;5088199;28;20537;-66
2022/08/07 11:47:36;;;;;;;2.53;2.33;;;28.70;52.10;;;;;;5087958;28;20810;-67
2022/08/07 11:50:34;;;;;;;2.87;2.10;;;28.70;52.20;;;;;;5087811;28;20825;-67
2022/08/07 11:53:19;;;;;;;2.17;2.07;;;28.70;52.10;;;;;;5087975;28;20483;-68
2022/08/07 11:56:15;;;;;;;2.17;2.07;;;28.60;52.40;;;;;;5086651;28;20451;-67
2022/08/07 11:59:05;;;;;;;2.83;2.30;;;28.60;52.30;;;;;;5090964;28;20454;-67
2022/08/07 12:02:02;;;;;;;2.30;2.10;;;28.60;52.30;;;;;;5087561;28;20445;-68
2022/08/07 12:05:00;;;;;;;1.97;1.87;;;28.60;52.60;;;;;;5090382;28;20500;-68
2022/08/07 12:07:34;;;;;;;5.50;2.80;;;28.70;52.50;;;;;;5088514;28;20470;-68
2022/08/07 12:10:13;;;;;;;3.40;3.10;;;28.70;52.70;;;;;;5083859;28;20476;-68
2022/08/07 12:12:48;;;;;;;2.63;2.40;;;28.60;53.00;;;;;;5088158;28;20444;-69
2022/08/07 12:15:22;;;;;;;5.93;3.10;;;28.70;53.40;;;;;;5087590;28;20621;-70
2022/08/07 12:18:19;;;;;;;5.77;3.30;;;28.70;53.60;;;;;;5087191;28;20451;-70
2022/08/07 12:21:07;;;;;;;4.57;2.47;;;28.70;53.10;;;;;;5087820;28;20986;-70
2022/08/07 12:23:49;;;;;;;3.37;2.33;;;28.70;52.90;;;;;;5086116;28;20446;-70
2022/08/07 12:26:42;;;;;;;2.03;1.93;;;28.70;52.90;;;;;;5085162;28;20527;-70
2022/08/07 12:29:23;;;;;;;2.60;2.40;;;28.70;52.80;;;;;;5090802;28;20494;-70
2022/08/07 12:32:15;;;;;;;3.07;1.73;;;28.70;52.70;;;;;;5093038;28;20442;-70
2022/08/07 12:34:47;;;;;;;2.73;2.53;;;28.70;51.90;;;;;;5090249;28;20952;-71
2022/08/07 12:37:25;;;;;;;2.33;2.17;;;28.70;51.80;;;;;;5090594;28;20942;-71
2022/08/07 12:40:19;;;;;;;1.67;1.57;;;28.60;52.30;;;;;;5091295;28;20468;-70
2022/08/07 12:43:09;;;;;;;2.47;2.30;;;28.60;52.20;;;;;;5085947;28;20549;-69
2022/08/07 12:45:47;;;;;;;3.73;2.13;;;28.70;51.90;;;;;;5092976;28;21319;-67
2022/08/07 12:48:29;;;;;;;1.93;1.83;;;28.60;51.70;;;;;;5088593;28;20460;-67
2022/08/07 12:51:20;;;;;;;3.23;2.03;;;28.50;51.40;;;;;;5092501;28;20470;-67
2022/08/07 12:53:55;;;;;;;2.40;2.20;;;28.50;51.80;;;;;;5089187;28;20450;-68
2022/08/07 12:56:45;;;;;;;4.00;2.80;;;28.60;52.10;;;;;;5089353;28;20450;-66
2022/08/07 12:59:27;;;;;;;4.67;2.50;;;28.60;53.20;;;;;;5091403;28;20459;-67
2022/08/07 13:02:32;;;;;;;2.70;2.30;;;28.60;54.60;;;;;;5089930;28;20485;-68
2022/08/07 13:05:09;;;;;;;2.60;2.30;;;28.60;54.30;;;;;;5093301;28;20946;-68
2022/08/07 13:08:22;;;;;;;2.30;2.10;;;28.60;53.70;;;;;;5091801;28;20539;-68
2022/08/07 13:11:08;;;;;;;1.80;1.70;;;28.60;54.60;;;;;;5092566;28;20467;-68
2022/08/07 13:13:55;;;;;;;2.20;1.90;;;28.60;54.10;;;;;;5090420;28;20907;-68
2022/08/07 13:16:32;;;;;;;2.23;2.13;;;28.60;53.80;;;;;;5081255;28;20455;-68
2022/08/07 13:19:16;;;;;;;1.90;1.80;;;28.50;53.60;;;;;;5077863;28;21015;-68
2022/08/07 13:22:09;;;;;;;2.10;2.00;;;28.50;52.90;;;;;;5093858;28;20965;-67
2022/08/07 13:28:02;;;;;;;1.83;1.73;;;28.50;53.00;;;;;;5089523;28;20979;-67
2022/08/07 13:30:47;;;;;;;2.33;2.17;;;28.60;53.10;;;;;;5091029;28;20813;-69
2022/08/07 13:33:38;;;;;;;6.33;2.37;;;28.50;53.30;;;;;;5089189;28;20556;-69
2022/08/07 13:36:32;;;;;;;2.43;2.23;;;28.50;53.80;;;;;;5088889;28;20541;-67
2022/08/07 13:39:15;;;;;;;4.47;2.00;;;28.60;53.70;;;;;;5089592;28;20505;-69
2022/08/07 13:41:57;;;;;;;6.90;3.03;;;28.70;53.80;;;;;;5093484;28;20484;-68
2022/08/07 13:44:32;;;;;;;6.57;2.63;;;28.70;54.00;;;;;;5092522;28;20607;-68
2022/08/07 13:47:06;;;;;;;4.00;2.13;;;28.70;53.60;;;;;;5089723;28;20440;-68
2022/08/07 13:49:40;;;;;;;2.10;1.90;;;28.70;53.50;;;;;;5090744;28;20452;-68
2022/08/07 13:52:33;;;;;;;5.30;2.20;;;28.70;53.40;;;;;;5090642;28;20487;-68
2022/08/07 13:55:13;;;;;;;1.93;1.83;;;28.70;53.30;;;;;;5062002;28;20475;-68
2022/08/07 14:01:02;;;;;;;1.93;1.73;;;28.70;53.10;;;;;;5090115;28;20487;-69
2022/08/07 14:03:39;;;;;;;1.80;1.70;;;28.70;53.10;;;;;;5087782;28;20601;-68
2022/08/07 14:06:32;;;;;;;1.60;1.50;;;28.70;52.90;;;;;;5089934;28;20482;-68
2022/08/07 14:09:04;;;;;;;1.67;1.57;;;28.60;52.00;;;;;;5091180;28;20547;-68
2022/08/07 14:11:42;;;;;;;2.33;2.13;;;28.60;51.80;;;;;;5089898;28;20500;-67
2022/08/07 14:14:33;;;;;;;1.87;1.77;;;28.60;51.70;;;;;;5087508;28;20569;-67
2022/08/07 14:17:04;;;;;;;1.77;1.67;;;28.60;51.60;;;;;;5090755;28;20536;-67